createdAt,value
2023-04-15T00:00:17.792Z,100378.03
2023-04-15T00:01:11.904Z,100377.28
2023-04-15T00:02:14.342Z,100382.44
2023-04-15T00:03:08.849Z,100381.56
2023-04-15T00:04:00.532Z,100383.31
2023-04-15T00:04:52.171Z,100381.44
2023-04-15T00:05:43.680Z,100385.66
2023-04-15T00:06:37.527Z,100383.97
2023-04-15T00:07:29.611Z,100378.00
2023-04-15T00:08:21.090Z,100380.56
2023-04-15T00:09:12.561Z,100380.44
2023-04-15T00:10:05.376Z,100376.03
2023-04-15T00:11:05.651Z,100382.81
2023-04-15T00:11:57.655Z,100382.56
2023-04-15T00:12:49.200Z,100380.88
2023-04-15T00:13:43.981Z,100379.09
2023-04-15T00:14:38.681Z,100379.22
2023-04-15T00:15:30.169Z,100377.44
2023-04-15T00:16:21.844Z,100375.59
2023-04-15T00:17:13.489Z,100376.25
2023-04-15T00:18:04.841Z,100380.63
2023-04-15T00:18:56.845Z,100372.78
2023-04-15T00:19:48.308Z,100375.22
2023-04-15T00:20:39.929Z,100372.66
2023-04-15T00:21:33.902Z,100380.31
2023-04-15T00:22:26.797Z,100376.13
2023-04-15T00:23:18.702Z,100376.94
2023-04-15T00:24:10.120Z,100368.06
2023-04-15T00:25:02.124Z,100373.34
2023-04-15T00:25:53.625Z,100378.69
2023-04-15T00:26:45.041Z,100377.75
2023-04-15T00:27:36.763Z,100374.09
2023-04-15T00:28:28.495Z,100377.47
2023-04-15T00:29:22.595Z,100375.88
2023-04-15T00:30:14.084Z,100374.09
2023-04-15T00:31:05.660Z,100369.75
2023-04-15T00:32:00.196Z,100369.75
2023-04-15T00:32:53.990Z,100372.31
2023-04-15T00:33:48.650Z,100373.22
2023-04-15T00:34:40.166Z,100374.97
2023-04-15T00:35:32.703Z,100374.28
2023-04-15T00:36:24.476Z,100374.22
2023-04-15T00:37:15.982Z,100372.47
2023-04-15T00:38:10.187Z,100374.16
2023-04-15T00:39:02.876Z,100374.97
2023-04-15T00:39:54.392Z,100375.66
2023-04-15T00:40:46.156Z,100366.19
2023-04-15T00:41:42.451Z,100363.72
2023-04-15T00:42:34.910Z,100371.44
2023-04-15T00:43:26.645Z,100374.63
2023-04-15T00:44:18.853Z,100377.09
2023-04-15T00:45:10.980Z,100365.97
2023-04-15T00:46:05.907Z,100361.72
2023-04-15T00:46:59.426Z,100366.88
2023-04-15T00:47:51.281Z,100369.44
2023-04-15T00:48:43.789Z,100367.47
2023-04-15T00:49:36.634Z,100373.44
2023-04-15T00:50:30.571Z,100365.66
2023-04-15T00:51:22.292Z,100369.78
2023-04-15T00:52:18.516Z,100363.78
2023-04-15T00:53:09.997Z,100367.31
2023-04-15T00:54:04.333Z,100379.22
2023-04-15T00:54:55.985Z,100370.88
2023-04-15T00:55:47.569Z,100370.06
2023-04-15T00:56:39.886Z,100374.22
2023-04-15T00:57:31.669Z,100369.88
2023-04-15T00:58:27.972Z,100374.94
2023-04-15T00:59:22.866Z,100373.19
2023-04-15T01:00:14.573Z,100373.19
2023-04-15T01:01:06.690Z,100373.06
2023-04-15T01:01:58.412Z,100373.06
2023-04-15T01:02:52.632Z,100379.75
2023-04-15T01:03:44.974Z,100369.41
2023-04-15T01:04:36.992Z,100376.25
2023-04-15T01:05:29.443Z,100375.38
2023-04-15T01:06:22.154Z,100371.47
2023-04-15T01:07:13.950Z,100374.91
2023-04-15T01:08:06.140Z,100375.84
2023-04-15T01:08:58.774Z,100374.91
2023-04-15T01:09:50.890Z,100373.09
2023-04-15T01:10:45.356Z,100373.00
2023-04-15T01:11:37.776Z,100372.75
2023-04-15T01:12:29.477Z,100369.28
2023-04-15T01:13:24.233Z,100370.19
2023-04-15T01:14:16.109Z,100375.78
2023-04-15T01:15:08.369Z,100374.31
2023-04-15T01:16:00.951Z,100374.94
2023-04-15T01:16:53.183Z,100375.75
2023-04-15T01:17:46.788Z,100371.16
2023-04-15T01:18:38.817Z,100372.00
2023-04-15T01:19:31.643Z,100372.69
2023-04-15T01:20:23.406Z,100373.50
2023-04-15T01:21:14.887Z,100371.97
2023-04-15T01:22:09.405Z,100366.00
2023-04-15T01:23:03.600Z,100360.91
2023-04-15T01:23:56.868Z,100366.88
2023-04-15T01:25:01.052Z,100366.00
2023-04-15T01:25:53.745Z,100364.38
2023-04-15T01:26:46.451Z,100366.66
2023-04-15T01:27:42.262Z,100365.56
2023-04-15T01:28:35.406Z,100366.47
2023-04-15T01:29:27.485Z,100367.28
2023-04-15T01:30:18.936Z,100374.91
2023-04-15T01:31:13.661Z,100374.91
2023-04-15T01:32:05.822Z,100369.72
2023-04-15T01:32:57.431Z,100369.75
2023-04-15T01:33:48.941Z,100374.78
2023-04-15T01:34:40.395Z,100362.66
2023-04-15T01:35:32.222Z,100371.13
2023-04-15T01:36:23.915Z,100371.88
2023-04-15T01:37:20.061Z,100371.66
2023-04-15T01:38:13.588Z,100372.56
2023-04-15T01:39:09.708Z,100370.72
2023-04-15T01:40:01.175Z,100373.19
2023-04-15T01:40:55.381Z,100373.94
2023-04-15T01:41:49.368Z,100375.75
2023-04-15T01:42:41.166Z,100374.94
2023-04-15T01:43:36.348Z,100376.88
2023-04-15T01:44:27.794Z,100375.56
2023-04-15T01:45:19.578Z,100381.72
2023-04-15T01:46:11.105Z,100377.69
2023-04-15T01:47:02.686Z,100377.47
2023-04-15T01:47:54.698Z,100376.38
2023-04-15T01:48:46.758Z,100378.88
2023-04-15T01:49:38.195Z,100377.06
2023-04-15T01:50:30.816Z,100375.97
2023-04-15T01:51:23.517Z,100376.03
2023-04-15T01:52:15.671Z,100373.16
2023-04-15T01:53:07.365Z,100371.41
2023-04-15T01:53:58.903Z,100373.31
2023-04-15T01:54:51.286Z,100372.34
2023-04-15T01:55:44.028Z,100377.44
2023-04-15T01:56:35.571Z,100376.69
2023-04-15T01:57:28.359Z,100376.56
2023-04-15T01:58:22.526Z,100375.03
2023-04-15T01:59:17.042Z,100371.63
2023-04-15T02:00:09.244Z,100376.47
2023-04-15T02:01:07.111Z,100376.28
2023-04-15T02:02:00.383Z,100372.22
2023-04-15T02:02:53.324Z,100378.84
2023-04-15T02:03:46.814Z,100375.22
2023-04-15T02:04:40.258Z,100375.19
2023-04-15T02:05:31.895Z,100373.47
2023-04-15T02:06:23.466Z,100365.75
2023-04-15T02:07:17.681Z,100369.81
2023-04-15T02:08:09.569Z,100373.94
2023-04-15T02:09:04.236Z,100370.41
2023-04-15T02:09:55.618Z,100367.91
2023-04-15T02:10:49.218Z,100374.75
2023-04-15T02:11:40.799Z,100367.75
2023-04-15T02:12:32.255Z,100372.66
2023-04-15T02:13:24.042Z,100373.47
2023-04-15T02:14:15.544Z,100374.38
2023-04-15T02:15:07.673Z,100375.03
2023-04-15T02:15:59.732Z,100373.19
2023-04-15T02:16:51.541Z,100375.63
2023-04-15T02:17:45.910Z,100377.31
2023-04-15T02:18:41.610Z,100372.31
2023-04-15T02:19:35.539Z,100376.72
2023-04-15T02:20:30.282Z,100375.91
2023-04-15T02:21:23.163Z,100378.56
2023-04-15T02:22:18.403Z,100375.84
2023-04-15T02:23:11.658Z,100376.72
2023-04-15T02:24:07.443Z,100374.16
2023-04-15T02:24:59.055Z,100380.03
2023-04-15T02:25:53.923Z,100377.59
2023-04-15T02:26:46.643Z,100382.00
2023-04-15T02:27:38.411Z,100376.94
2023-04-15T02:28:29.897Z,100382.81
2023-04-15T02:29:23.644Z,100375.91
2023-04-15T02:30:18.065Z,100377.47
2023-04-15T02:31:09.628Z,100378.28
2023-04-15T02:32:01.660Z,100372.91
2023-04-15T02:32:53.282Z,100382.59
2023-04-15T02:33:45.068Z,100382.81
2023-04-15T02:34:37.613Z,100377.00
2023-04-15T02:35:29.121Z,100382.31
2023-04-15T02:36:21.319Z,100384.78
2023-04-15T02:37:13.756Z,100385.47
2023-04-15T02:38:05.216Z,100385.66
2023-04-15T02:38:57.543Z,100384.78
2023-04-15T02:39:49.093Z,100389.22
2023-04-15T02:40:40.635Z,100380.75
2023-04-15T02:41:32.027Z,100385.09
2023-04-15T02:42:23.768Z,100380.91
2023-04-15T02:43:15.475Z,100383.47
2023-04-15T02:44:11.347Z,100391.25
2023-04-15T02:45:03.409Z,100395.50
2023-04-15T02:45:58.600Z,100391.94
2023-04-15T02:46:52.513Z,100396.13
2023-04-15T02:47:45.824Z,100390.97
2023-04-15T02:48:39.588Z,100391.13
2023-04-15T02:49:31.148Z,100392.66
2023-04-15T02:50:23.578Z,100397.41
2023-04-15T02:51:20.329Z,100396.97
2023-04-15T02:52:11.920Z,100402.06
2023-04-15T02:53:03.339Z,100397.44
2023-04-15T02:53:55.092Z,100404.34
2023-04-15T02:54:46.656Z,100394.88
2023-04-15T02:55:38.133Z,100402.63
2023-04-15T02:56:31.021Z,100396.63
2023-04-15T02:57:22.511Z,100400.63
2023-04-15T02:58:14.004Z,100403.28
2023-04-15T02:59:05.462Z,100399.00
2023-04-15T02:59:57.046Z,100401.38
2023-04-15T03:00:50.909Z,100399.31
2023-04-15T03:01:44.228Z,100402.44
2023-04-15T03:02:40.103Z,100397.41
2023-04-15T03:03:32.639Z,100408.47
2023-04-15T03:04:24.281Z,100405.91
2023-04-15T03:05:18.292Z,100405.91
2023-04-15T03:06:16.220Z,100405.16
2023-04-15T03:07:07.701Z,100404.50
2023-04-15T03:08:01.648Z,100406.38
2023-04-15T03:08:56.927Z,100405.63
2023-04-15T03:09:48.624Z,100409.09
2023-04-15T03:10:39.993Z,100409.28
2023-04-15T03:11:33.648Z,100408.56
2023-04-15T03:12:26.197Z,100406.16
2023-04-15T03:13:21.603Z,100413.03
2023-04-15T03:14:13.497Z,100406.09
2023-04-15T03:15:09.789Z,100407.84
2023-04-15T03:16:07.328Z,100406.00
2023-04-15T03:16:59.541Z,100409.94
2023-04-15T03:17:51.139Z,100412.31
2023-04-15T03:18:45.354Z,100414.72
2023-04-15T03:19:37.507Z,100409.44
2023-04-15T03:20:29.340Z,100411.91
2023-04-15T03:21:20.863Z,100412.81
2023-04-15T03:22:14.305Z,100417.06
2023-04-15T03:23:06.215Z,100422.28
2023-04-15T03:23:57.644Z,100418.16
2023-04-15T03:24:49.839Z,100415.53
2023-04-15T03:25:42.108Z,100419.78
2023-04-15T03:26:33.896Z,100421.63
2023-04-15T03:27:29.882Z,100422.56
2023-04-15T03:28:25.219Z,100425.81
2023-04-15T03:29:16.922Z,100416.25
2023-04-15T03:30:08.966Z,100421.31
2023-04-15T03:31:03.656Z,100424.03
2023-04-15T03:31:55.659Z,100420.66
2023-04-15T03:32:47.537Z,100417.19
2023-04-15T03:33:39.329Z,100420.66
2023-04-15T03:34:30.728Z,100422.44
2023-04-15T03:35:22.445Z,100413.91
2023-04-15T03:36:14.171Z,100428.53
2023-04-15T03:37:05.651Z,100418.16
2023-04-15T03:37:59.681Z,100422.50
2023-04-15T03:38:51.359Z,100423.28
2023-04-15T03:39:42.878Z,100426.09
2023-04-15T03:40:34.262Z,100425.16
2023-04-15T03:41:26.673Z,100427.63
2023-04-15T03:42:18.092Z,100426.75
2023-04-15T03:43:09.749Z,100429.19
2023-04-15T03:44:01.292Z,100429.22
2023-04-15T03:44:53.000Z,100430.03
2023-04-15T03:45:44.462Z,100432.69
2023-04-15T03:46:36.185Z,100435.31
2023-04-15T03:47:27.627Z,100434.47
2023-04-15T03:48:19.397Z,100437.03
2023-04-15T03:49:11.099Z,100436.88
2023-04-15T03:50:07.113Z,100436.34
2023-04-15T03:50:58.638Z,100439.56
2023-04-15T03:51:50.644Z,100435.06
2023-04-15T03:52:45.579Z,100436.75
2023-04-15T03:53:37.060Z,100434.75
2023-04-15T03:54:28.618Z,100435.41
2023-04-15T03:55:22.657Z,100436.94
2023-04-15T03:56:14.275Z,100430.09
2023-04-15T03:57:05.721Z,100429.31
2023-04-15T03:57:59.592Z,100434.50
2023-04-15T03:58:51.054Z,100432.91
2023-04-15T03:59:42.450Z,100433.72
2023-04-15T04:00:33.899Z,100437.06
2023-04-15T04:01:25.387Z,100438.44
2023-04-15T04:02:17.254Z,100434.84
2023-04-15T04:03:09.111Z,100430.28
2023-04-15T04:04:00.976Z,100433.78
2023-04-15T04:04:52.596Z,100437.91
2023-04-15T04:05:44.720Z,100438.94
2023-04-15T04:06:36.233Z,100440.84
2023-04-15T04:07:27.855Z,100432.94
2023-04-15T04:08:20.604Z,100432.94
2023-04-15T04:09:14.482Z,100434.53
2023-04-15T04:10:06.624Z,100432.69
2023-04-15T04:10:58.105Z,100431.00
2023-04-15T04:11:49.528Z,100434.53
2023-04-15T04:12:41.434Z,100425.09
2023-04-15T04:13:32.838Z,100434.13
2023-04-15T04:14:29.907Z,100432.28
2023-04-15T04:15:23.836Z,100430.44
2023-04-15T04:16:15.512Z,100422.59
2023-04-15T04:17:07.274Z,100425.97
2023-04-15T04:18:01.321Z,100425.16
2023-04-15T04:18:52.725Z,100430.28
2023-04-15T04:19:44.389Z,100428.59
2023-04-15T04:20:36.265Z,100434.78
2023-04-15T04:21:28.019Z,100439.41
2023-04-15T04:22:23.804Z,100438.63
2023-04-15T04:23:15.507Z,100450.00
2023-04-15T04:24:07.102Z,100452.56
2023-04-15T04:24:59.931Z,100450.91
2023-04-15T04:25:54.015Z,100446.63
2023-04-15T04:26:46.865Z,100451.06
2023-04-15T04:27:40.916Z,100448.38
2023-04-15T04:28:32.558Z,100446.31
2023-04-15T04:29:24.178Z,100447.91
2023-04-15T04:30:16.163Z,100455.63
2023-04-15T04:31:08.016Z,100450.31
2023-04-15T04:31:59.780Z,100456.16
2023-04-15T04:32:52.990Z,100455.28
2023-04-15T04:33:46.872Z,100448.25
2023-04-15T04:34:38.412Z,100454.09
2023-04-15T04:35:29.905Z,100454.19
2023-04-15T04:36:21.543Z,100451.78
2023-04-15T04:37:13.168Z,100453.38
2023-04-15T04:38:04.951Z,100459.00
2023-04-15T04:38:57.137Z,100450.16
2023-04-15T04:39:48.652Z,100449.38
2023-04-15T04:40:40.483Z,100453.69
2023-04-15T04:41:32.347Z,100457.59
2023-04-15T04:42:24.012Z,100453.69
2023-04-15T04:43:16.316Z,100454.72
2023-04-15T04:44:07.744Z,100460.00
2023-04-15T04:44:59.170Z,100466.19
2023-04-15T04:45:50.661Z,100459.38
2023-04-15T04:46:42.079Z,100455.78
2023-04-15T04:47:33.623Z,100457.28
2023-04-15T04:48:25.235Z,100452.91
2023-04-15T04:49:16.788Z,100463.06
2023-04-15T04:50:09.063Z,100454.81
2023-04-15T04:51:00.892Z,100460.81
2023-04-15T04:51:54.652Z,100455.38
2023-04-15T04:52:46.498Z,100458.03
2023-04-15T04:53:38.211Z,100460.66
2023-04-15T04:54:31.086Z,100462.41
2023-04-15T04:55:22.578Z,100466.69
2023-04-15T04:56:14.027Z,100464.13
2023-04-15T04:57:05.507Z,100468.44
2023-04-15T04:57:56.923Z,100467.38
2023-04-15T04:58:50.169Z,100464.75
2023-04-15T04:59:44.074Z,100469.88
2023-04-15T05:00:35.898Z,100470.84
2023-04-15T05:01:27.802Z,100471.56
2023-04-15T05:02:19.452Z,100469.72
2023-04-15T05:03:11.707Z,100469.56
2023-04-15T05:04:05.180Z,100473.97
2023-04-15T05:04:56.942Z,100474.13
2023-04-15T05:05:51.876Z,100475.09
2023-04-15T05:06:43.522Z,100478.44
2023-04-15T05:07:35.010Z,100477.41
2023-04-15T05:08:26.501Z,100480.03
2023-04-15T05:09:17.970Z,100485.44
2023-04-15T05:10:10.076Z,100483.03
2023-04-15T05:11:02.502Z,100480.63
2023-04-15T05:11:54.206Z,100482.47
2023-04-15T05:12:45.849Z,100482.63
2023-04-15T05:13:38.707Z,100489.50
2023-04-15T05:14:31.064Z,100492.81
2023-04-15T05:15:22.506Z,100489.50
2023-04-15T05:16:14.104Z,100490.50
2023-04-15T05:17:05.686Z,100491.38
2023-04-15T05:17:57.197Z,100491.47
2023-04-15T05:18:48.630Z,100498.38
2023-04-15T05:19:40.137Z,100499.16
2023-04-15T05:20:31.652Z,100496.25
2023-04-15T05:21:23.460Z,100496.19
2023-04-15T05:22:15.167Z,100497.78
2023-04-15T05:23:06.843Z,100502.34
2023-04-15T05:24:00.907Z,100502.59
2023-04-15T05:24:54.469Z,100503.66
2023-04-15T05:25:45.998Z,100507.34
2023-04-15T05:26:37.623Z,100498.09
2023-04-15T05:27:29.144Z,100511.09
2023-04-15T05:28:22.993Z,100507.81
2023-04-15T05:29:14.471Z,100503.66
2023-04-15T05:30:07.205Z,100501.19
2023-04-15T05:30:58.943Z,100503.00
2023-04-15T05:31:50.938Z,100498.94
2023-04-15T05:32:42.456Z,100504.06
2023-04-15T05:33:34.211Z,100503.00
2023-04-15T05:34:26.201Z,100504.88
2023-04-15T05:35:17.800Z,100498.84
2023-04-15T05:36:09.739Z,100505.88
2023-04-15T05:37:01.343Z,100498.78
2023-04-15T05:37:52.781Z,100503.09
2023-04-15T05:38:44.271Z,100504.22
2023-04-15T05:39:35.967Z,100504.22
2023-04-15T05:40:28.063Z,100510.88
2023-04-15T05:41:19.945Z,100511.97
2023-04-15T05:42:11.715Z,100507.97
2023-04-15T05:43:05.375Z,100510.53
2023-04-15T05:43:59.306Z,100505.81
2023-04-15T05:44:50.940Z,100510.44
2023-04-15T05:45:42.579Z,100515.88
2023-04-15T05:46:34.175Z,100516.19
2023-04-15T05:47:25.592Z,100518.16
2023-04-15T05:48:19.148Z,100515.88
2023-04-15T05:49:11.981Z,100522.84
2023-04-15T05:50:04.416Z,100517.72
2023-04-15T05:50:56.025Z,100513.47
2023-04-15T05:51:48.243Z,100518.16
2023-04-15T05:52:46.698Z,100519.38
2023-04-15T05:53:41.939Z,100526.41
2023-04-15T05:54:33.517Z,100528.31
2023-04-15T05:55:25.066Z,100523.63
2023-04-15T05:56:16.838Z,100525.78
2023-04-15T05:57:08.233Z,100518.47
2023-04-15T05:57:59.862Z,100522.13
2023-04-15T05:58:53.377Z,100526.50
2023-04-15T05:59:45.294Z,100528.50
2023-04-15T06:00:36.790Z,100533.94
2023-04-15T06:01:28.444Z,100529.09
2023-04-15T06:02:20.266Z,100531.13
2023-04-15T06:03:12.412Z,100528.72
2023-04-15T06:04:04.151Z,100527.25
2023-04-15T06:04:58.205Z,100534.38
2023-04-15T06:05:49.799Z,100528.69
2023-04-15T06:06:44.533Z,100533.16
2023-04-15T06:07:36.816Z,100534.28
2023-04-15T06:08:29.608Z,100536.25
2023-04-15T06:09:21.520Z,100530.38
2023-04-15T06:10:13.029Z,100536.47
2023-04-15T06:11:04.555Z,100539.22
2023-04-15T06:11:56.917Z,100535.84
2023-04-15T06:12:48.644Z,100538.50
2023-04-15T06:13:40.113Z,100544.97
2023-04-15T06:14:31.788Z,100540.94
2023-04-15T06:15:23.329Z,100545.53
2023-04-15T06:16:17.425Z,100539.81
2023-04-15T06:17:09.111Z,100546.78
2023-04-15T06:18:00.598Z,100542.84
2023-04-15T06:18:52.113Z,100540.59
2023-04-15T06:19:43.539Z,100543.50
2023-04-15T06:20:34.970Z,100543.03
2023-04-15T06:21:27.008Z,100545.88
2023-04-15T06:22:18.434Z,100545.25
2023-04-15T06:23:09.879Z,100544.63
2023-04-15T06:24:01.702Z,100545.78
2023-04-15T06:24:55.553Z,100540.91
2023-04-15T06:25:47.262Z,100548.13
2023-04-15T06:26:43.892Z,100544.97
2023-04-15T06:27:35.374Z,100545.22
2023-04-15T06:28:26.776Z,100553.19
2023-04-15T06:29:18.229Z,100547.47
2023-04-15T06:30:10.232Z,100551.19
2023-04-15T06:31:02.191Z,100548.84
2023-04-15T06:31:53.710Z,100552.56
2023-04-15T06:32:46.453Z,100551.84
2023-04-15T06:33:38.192Z,100548.69
2023-04-15T06:34:29.986Z,100552.38
2023-04-15T06:35:22.362Z,100553.56
2023-04-15T06:36:14.093Z,100551.25
2023-04-15T06:37:06.396Z,100560.97
2023-04-15T06:38:02.379Z,100551.75
2023-04-15T06:38:54.120Z,100547.66
2023-04-15T06:39:45.810Z,100556.66
2023-04-15T06:40:37.631Z,100558.63
2023-04-15T06:41:29.214Z,100558.94
2023-04-15T06:42:20.860Z,100559.25
2023-04-15T06:43:13.224Z,100556.81
2023-04-15T06:44:04.970Z,100559.69
2023-04-15T06:44:56.678Z,100553.84
2023-04-15T06:45:50.900Z,100560.97
2023-04-15T06:46:42.365Z,100558.59
2023-04-15T06:47:33.792Z,100565.69
2023-04-15T06:48:25.240Z,100562.38
2023-04-15T06:49:17.127Z,100560.81
2023-04-15T06:50:09.200Z,100560.13
2023-04-15T06:51:00.909Z,100567.22
2023-04-15T06:51:52.728Z,100565.66
2023-04-15T06:52:44.355Z,100574.53
2023-04-15T06:53:42.162Z,100571.09
2023-04-15T06:54:36.183Z,100567.78
2023-04-15T06:55:29.804Z,100569.69
2023-04-15T06:56:21.865Z,100566.41
2023-04-15T06:57:17.840Z,100576.00
2023-04-15T06:58:09.250Z,100580.34
2023-04-15T06:59:01.610Z,100575.28
2023-04-15T06:59:54.559Z,100572.81
2023-04-15T07:00:48.422Z,100578.94
2023-04-15T07:01:41.347Z,100575.59
2023-04-15T07:02:33.421Z,100581.78
2023-04-15T07:03:25.026Z,100582.72
2023-04-15T07:04:16.593Z,100576.78
2023-04-15T07:05:11.322Z,100575.19
2023-04-15T07:06:06.326Z,100585.66
2023-04-15T07:06:57.753Z,100577.91
2023-04-15T07:07:49.248Z,100582.25
2023-04-15T07:08:40.764Z,100581.50
2023-04-15T07:09:32.649Z,100586.84
2023-04-15T07:10:25.543Z,100576.66
2023-04-15T07:11:17.446Z,100578.50
2023-04-15T07:12:10.919Z,100587.28
2023-04-15T07:13:05.938Z,100581.31
2023-04-15T07:14:00.415Z,100589.28
2023-04-15T07:14:51.873Z,100584.22
2023-04-15T07:15:43.313Z,100582.63
2023-04-15T07:16:34.840Z,100588.00
2023-04-15T07:17:26.321Z,100581.22
2023-04-15T07:18:20.409Z,100585.59
2023-04-15T07:19:11.876Z,100589.94
2023-04-15T07:20:05.059Z,100585.81
2023-04-15T07:20:56.470Z,100588.59
2023-04-15T07:21:48.081Z,100590.44
2023-04-15T07:22:40.725Z,100587.94
2023-04-15T07:23:34.476Z,100577.72
2023-04-15T07:24:26.843Z,100584.00
2023-04-15T07:25:18.992Z,100584.97
2023-04-15T07:26:11.281Z,100582.47
2023-04-15T07:27:06.041Z,100589.50
2023-04-15T07:27:57.523Z,100585.34
2023-04-15T07:28:49.338Z,100589.81
2023-04-15T07:29:41.274Z,100587.31
2023-04-15T07:30:35.969Z,100589.13
2023-04-15T07:31:27.688Z,100590.13
2023-04-15T07:32:20.209Z,100594.53
2023-04-15T07:33:12.101Z,100591.38
2023-04-15T07:34:05.041Z,100588.16
2023-04-15T07:34:57.001Z,100589.28
2023-04-15T07:35:49.156Z,100588.50
2023-04-15T07:36:40.805Z,100586.09
2023-04-15T07:37:34.305Z,100588.03
2023-04-15T07:38:28.344Z,100593.50
2023-04-15T07:39:22.593Z,100591.06
2023-04-15T07:40:16.391Z,100590.50
2023-04-15T07:41:10.565Z,100590.69
2023-04-15T07:42:02.358Z,100590.88
2023-04-15T07:42:54.004Z,100589.28
2023-04-15T07:43:45.815Z,100593.66
2023-04-15T07:44:39.874Z,100595.44
2023-04-15T07:45:32.036Z,100600.78
2023-04-15T07:46:27.320Z,100597.44
2023-04-15T07:47:18.916Z,100600.91
2023-04-15T07:48:10.890Z,100601.03
2023-04-15T07:49:02.581Z,100600.28
2023-04-15T07:49:54.343Z,100601.31
2023-04-15T07:50:45.881Z,100604.91
2023-04-15T07:51:37.395Z,100598.94
2023-04-15T07:52:28.901Z,100599.13
2023-04-15T07:53:20.558Z,100600.13
2023-04-15T07:54:11.975Z,100605.47
2023-04-15T07:55:03.654Z,100602.03
2023-04-15T07:55:55.109Z,100604.63
2023-04-15T07:56:46.734Z,100606.50
2023-04-15T07:57:38.466Z,100605.63
2023-04-15T07:58:29.942Z,100606.44
2023-04-15T07:59:21.530Z,100609.84
2023-04-15T08:00:13.696Z,100604.69
2023-04-15T08:01:06.853Z,100604.75
2023-04-15T08:01:58.418Z,100609.94
2023-04-15T08:02:50.253Z,100613.56
2023-04-15T08:03:42.329Z,100624.22
2023-04-15T08:04:34.250Z,100613.72
2023-04-15T08:05:28.670Z,100614.66
2023-04-15T08:06:23.025Z,100612.78
2023-04-15T08:07:14.754Z,100617.31
2023-04-15T08:08:07.177Z,100615.75
2023-04-15T08:08:58.701Z,100624.41
2023-04-15T08:09:50.261Z,100619.25
2023-04-15T08:10:41.759Z,100624.41
2023-04-15T08:11:33.292Z,100621.00
2023-04-15T08:12:24.888Z,100620.22
2023-04-15T08:13:17.241Z,100620.34
2023-04-15T08:14:08.674Z,100617.91
2023-04-15T08:15:02.820Z,100624.97
2023-04-15T08:16:19.457Z,100629.47
2023-04-15T08:17:10.870Z,100634.72
2023-04-15T08:18:02.433Z,100632.13
2023-04-15T08:18:56.251Z,100638.28
2023-04-15T08:19:48.371Z,100627.91
2023-04-15T08:20:40.447Z,100632.25
2023-04-15T08:21:32.226Z,100634.88
2023-04-15T08:22:24.058Z,100643.44
2023-04-15T08:23:15.804Z,100640.75
2023-04-15T08:24:08.213Z,100631.72
2023-04-15T08:25:00.936Z,100644.03
2023-04-15T08:25:55.334Z,100645.91
2023-04-15T08:26:47.424Z,100642.50
2023-04-15T08:27:38.992Z,100643.28
2023-04-15T08:28:30.928Z,100648.56
2023-04-15T08:29:22.360Z,100639.00
2023-04-15T08:30:14.500Z,100645.09
2023-04-15T08:31:08.338Z,100651.16
2023-04-15T08:32:07.809Z,100657.38
2023-04-15T08:32:59.411Z,100647.91
2023-04-15T08:33:52.582Z,100645.19
2023-04-15T08:34:44.147Z,100655.66
2023-04-15T08:35:35.638Z,100639.19
2023-04-15T08:36:27.172Z,100647.84
2023-04-15T08:37:18.931Z,100649.69
2023-04-15T08:38:10.675Z,100644.53
2023-04-15T08:39:04.839Z,100658.56
2023-04-15T08:39:56.716Z,100649.03
2023-04-15T08:40:48.267Z,100647.38
2023-04-15T08:42:02.815Z,100663.97
2023-04-15T08:42:59.585Z,100656.09
2023-04-15T08:43:58.664Z,100658.78
2023-04-15T08:44:51.129Z,100657.16
2023-04-15T08:45:44.364Z,100656.41
2023-04-15T08:46:35.954Z,100662.34
2023-04-15T08:47:33.834Z,100665.00
2023-04-15T08:48:29.607Z,100666.56
2023-04-15T08:49:22.677Z,100665.72
2023-04-15T08:50:15.196Z,100664.81
2023-04-15T08:51:08.480Z,100664.09
2023-04-15T08:52:01.032Z,100669.34
2023-04-15T08:52:55.645Z,100664.16
2023-04-15T08:53:47.772Z,100668.59
2023-04-15T08:54:42.146Z,100669.31
2023-04-15T08:55:39.992Z,100667.47
2023-04-15T08:56:33.338Z,100666.84
2023-04-15T08:57:27.646Z,100666.84
2023-04-15T08:58:19.997Z,100665.19
2023-04-15T08:59:12.425Z,100667.81
2023-04-15T09:00:05.736Z,100671.25
2023-04-15T09:00:57.593Z,100658.25
2023-04-15T09:01:53.516Z,100660.81
2023-04-15T09:02:45.352Z,100665.09
2023-04-15T09:03:37.657Z,100662.53
2023-04-15T09:04:29.837Z,100665.09
2023-04-15T09:05:22.988Z,100663.38
2023-04-15T09:06:18.387Z,100673.03
2023-04-15T09:07:09.851Z,100673.00
2023-04-15T09:08:02.484Z,100668.75
2023-04-15T09:08:56.911Z,100670.56
2023-04-15T09:09:48.790Z,100671.50
2023-04-15T09:10:49.368Z,100674.97
2023-04-15T09:11:41.843Z,100671.50
2023-04-15T09:12:37.076Z,100675.09
2023-04-15T09:13:29.133Z,100670.69
2023-04-15T09:14:23.181Z,100677.56
2023-04-15T09:15:16.349Z,100675.06
2023-04-15T09:16:10.582Z,100676.97
2023-04-15T09:17:04.361Z,100674.44
2023-04-15T09:17:57.068Z,100677.03
2023-04-15T09:18:51.372Z,100679.66
2023-04-15T09:19:42.970Z,100677.97
2023-04-15T09:20:42.544Z,100679.84
2023-04-15T09:21:34.539Z,100691.28
2023-04-15T09:22:32.621Z,100692.09
2023-04-15T09:23:24.230Z,100679.09
2023-04-15T09:24:15.669Z,100682.59
2023-04-15T09:25:16.194Z,100682.59
2023-04-15T09:26:08.302Z,100677.41
2023-04-15T09:27:00.557Z,100683.63
2023-04-15T09:27:58.984Z,100688.84
2023-04-15T09:28:50.626Z,100687.84
2023-04-15T09:29:42.872Z,100679.16
2023-04-15T09:30:35.195Z,100689.78
2023-04-15T09:31:29.983Z,100690.75
2023-04-15T09:32:23.418Z,100692.47
2023-04-15T09:33:16.421Z,100689.81
2023-04-15T09:34:08.157Z,100691.63
2023-04-15T09:35:11.141Z,100682.94
2023-04-15T09:36:05.823Z,100687.38
2023-04-15T09:36:57.687Z,100698.72
2023-04-15T09:37:49.952Z,100696.94
2023-04-15T09:38:58.892Z,100696.88
2023-04-15T09:39:52.993Z,100695.13
2023-04-15T09:40:45.694Z,100702.88
2023-04-15T09:41:40.381Z,100695.84
2023-04-15T09:42:34.248Z,100705.41
2023-04-15T09:43:40.783Z,100713.13
2023-04-15T09:44:32.606Z,100706.19
2023-04-15T09:45:27.159Z,100698.25
2023-04-15T09:46:20.960Z,100701.69
2023-04-15T09:47:30.385Z,100705.91
2023-04-15T09:48:27.163Z,100702.28
2023-04-15T09:49:19.452Z,100704.84
2023-04-15T09:50:11.082Z,100703.00
2023-04-15T09:51:02.658Z,100701.28
2023-04-15T09:52:05.756Z,100709.00
2023-04-15T09:52:59.504Z,100703.69
2023-04-15T09:53:54.876Z,100731.53
2023-04-15T09:54:46.590Z,100709.69
2023-04-15T09:55:38.122Z,100716.56
2023-04-15T09:56:42.424Z,100720.97
2023-04-15T09:57:36.513Z,100718.41
2023-04-15T09:58:35.175Z,100712.25
2023-04-15T09:59:26.659Z,100718.38
2023-04-15T10:00:18.085Z,100715.63
2023-04-15T10:01:11.492Z,100712.25
2023-04-15T10:02:08.892Z,100717.53
2023-04-15T10:03:01.208Z,100721.06